Weather History for Clovis, NM

Change the Weather History Date:

Saturday, November 23, 2013

  Actual Average Record
Temperature  
Mean Temperature 24 °F -  
Max Temperature 26 °F 59 °F 75 °F (1974)
Min Temperature 21 °F 31 °F 5 °F (1957)
Degree Days  
Heating Degree Days 42    
Moisture  
Dew Point 19 °F    
Average Humidity 79    
Maximum Humidity 86    
Minimum Humidity 69    
Precipitation  
Precipitation 0.26 in - - ()
Sea Level Pressure  
Sea Level Pressure 30.55 in    
Wind  
Wind Speed 15 mph (NE)    
Max Wind Speed 22 mph    
Max Gust Speed 25 mph    
Visibility 7 miles    
Events      
Averages and records for this station are not official NWS values.
T = Trace of Precipitation, MM = Missing Value Source: NWS Daily Summary

Daily Weather History Graph

Daily Weather History Graph

Search for Another Location

Airport:

Trip Planner

Search our weather history database for the weather conditions in past years. The results will help you decide how hot, cold, wet, or windy it might be!

Date:

Astronomy

Nov. 23, 2013 Rise Set
Actual Time 6:33 AM MST 4:43 PM MST
Civil Twilight 6:06 AM MST 5:11 PM MST
Nautical Twilight 5:35 AM MST 5:41 PM MST
Astronomical Twilight 5:05 AM MST 6:11 PM MST
Moon 10:08 PM MST (11/23) 10:56 AM MST (11/23)
Length of Visible Light 11h 04m
Length of Day
10h 10m
Waning Gibbous, 69% of the Moon is Illuminated
Nov 23
Waning Gibbous
Nov 25
Last Quarter
Dec 2
New
Dec 9
First Quarter
Dec 17
Full

Hourly Weather History & Observations

Time (MST) Temp. Windchill Dew Point Humidity Pressure Visibility Wind Dir Wind Speed Gust Speed Precip Events Conditions
12:15 AM 24.8 °F 12.4 °F 19.4 °F 80% 30.51 in 5.0 mi NNE 15.0 mph 18.4 mph N/A   Overcast
12:35 AM 24.8 °F 12.4 °F 19.4 °F 80% 30.51 in 5.0 mi NNE 15.0 mph - N/A   Overcast
12:55 AM 24.8 °F 12.4 °F 21.2 °F 86% 30.51 in 10.0 mi NNE 15.0 mph - N/A   Overcast
1:15 AM 24.8 °F 11.9 °F 19.4 °F 80% 30.51 in 10.0 mi NNE 16.1 mph - N/A   Overcast
1:35 AM 24.8 °F 13.4 °F 19.4 °F 80% 30.51 in 10.0 mi NNE 12.7 mph - N/A   Overcast
1:55 AM 24.8 °F 12.9 °F 21.2 °F 86% 30.52 in 10.0 mi NNE 13.8 mph - N/A   Overcast
2:15 AM 24.8 °F 12.4 °F 19.4 °F 80% 30.51 in 10.0 mi NNE 15.0 mph - N/A   Overcast
2:35 AM 24.8 °F 11.9 °F 19.4 °F 80% 30.52 in 10.0 mi NNE 16.1 mph 24.2 mph N/A   Overcast
2:55 AM 24.8 °F 11.1 °F 21.2 °F 86% 30.51 in 10.0 mi NNE 18.4 mph - N/A   Overcast
3:15 AM 24.8 °F 11.9 °F 21.2 °F 86% 30.52 in 10.0 mi NNE 16.1 mph - N/A   Overcast
3:35 AM 24.8 °F 11.9 °F 21.2 °F 86% 30.50 in 10.0 mi NNE 16.1 mph - N/A   Overcast
3:55 AM 26.6 °F 12.4 °F 21.2 °F 80% 30.50 in 10.0 mi NNE 21.9 mph - N/A   Overcast
4:15 AM 24.8 °F 11.5 °F 21.2 °F 86% 30.51 in 10.0 mi NNE 17.3 mph - N/A   Overcast
4:35 AM 26.6 °F 13.1 °F 21.2 °F 80% 30.52 in 10.0 mi NNE 19.6 mph 23.0 mph N/A   Overcast
4:55 AM 26.6 °F 13.4 °F 21.2 °F 80% 30.53 in 10.0 mi NNE 18.4 mph - N/A   Overcast
5:15 AM 26.6 °F 13.8 °F 21.2 °F 80% 30.53 in 10.0 mi NNE 17.3 mph - N/A   Overcast
5:35 AM 26.6 °F 13.8 °F 21.2 °F 80% 30.53 in 7.0 mi NNE 17.3 mph - N/A   Overcast
5:55 AM 26.6 °F 13.1 °F 21.2 °F 80% 30.52 in 4.0 mi NNE 19.6 mph 25.3 mph N/A   Overcast
6:15 AM 26.6 °F 13.1 °F 21.2 °F 80% 30.53 in 4.0 mi NNE 19.6 mph 24.2 mph N/A   Overcast
6:35 AM 26.6 °F 13.8 °F 21.2 °F 80% 30.54 in 8.0 mi NNE 17.3 mph - N/A   Overcast
6:55 AM 26.6 °F 13.4 °F 21.2 °F 80% 30.53 in 10.0 mi NNE 18.4 mph - N/A   Overcast
7:15 AM 26.6 °F 14.7 °F 21.2 °F 80% 30.56 in 10.0 mi NNE 15.0 mph 19.6 mph N/A   Overcast
7:35 AM 26.6 °F 15.7 °F 21.2 °F 80% 30.58 in 10.0 mi NNE 12.7 mph - N/A   Overcast
7:55 AM 26.6 °F 14.7 °F 21.2 °F 80% 30.57 in 10.0 mi NE 15.0 mph - N/A   Overcast
8:15 AM 26.6 °F 13.4 °F 21.2 °F 80% 30.57 in 9.0 mi NNE 18.4 mph - N/A   Overcast
8:35 AM 26.6 °F 13.4 °F 21.2 °F 80% 30.57 in 10.0 mi NE 18.4 mph - N/A   Overcast
8:55 AM 26.6 °F 14.3 °F 21.2 °F 80% 30.59 in 2.5 mi NNE 16.1 mph - N/A   Overcast
9:15 AM 26.6 °F 14.7 °F 21.2 °F 80% 30.60 in 1.5 mi NNE 15.0 mph - N/A   Overcast
9:35 AM 26.6 °F 14.7 °F 21.2 °F 80% 30.59 in 2.5 mi NNE 15.0 mph - N/A   Overcast
9:55 AM 26.6 °F 13.4 °F 21.2 °F 80% 30.59 in 7.0 mi NNE 18.4 mph - N/A   Overcast
10:15 AM 24.8 °F 11.5 °F 19.4 °F 80% 30.59 in 10.0 mi NNE 17.3 mph 23.0 mph N/A   Overcast
10:35 AM 24.8 °F 11.5 °F 17.6 °F 74% 30.61 in 10.0 mi NNE 17.3 mph 20.7 mph N/A   Overcast
10:55 AM 24.8 °F 11.5 °F 19.4 °F 80% 30.60 in 10.0 mi NNE 17.3 mph - N/A   Overcast
11:15 AM 24.8 °F 11.5 °F 17.6 °F 74% 30.58 in 10.0 mi NE 17.3 mph - N/A   Overcast
11:35 AM 26.6 °F 13.4 °F 17.6 °F 69% 30.59 in 10.0 mi NNE 18.4 mph - N/A   Overcast
11:55 AM 26.6 °F 14.7 °F 17.6 °F 69% 30.58 in 10.0 mi NNE 15.0 mph - N/A   Overcast
12:15 PM 26.6 °F 13.8 °F 19.4 °F 74% 30.57 in 8.0 mi NNE 17.3 mph - N/A   Overcast
12:35 PM 26.6 °F 14.7 °F 19.4 °F 74% 30.57 in 4.0 mi NNE 15.0 mph 19.6 mph N/A   Overcast
12:55 PM 26.6 °F 13.8 °F 19.4 °F 74% 30.57 in 5.0 mi NE 17.3 mph - N/A   Overcast
1:15 PM 26.6 °F 15.2 °F 21.2 °F 80% 30.57 in 7.0 mi NNE 13.8 mph - N/A   Overcast
1:35 PM 26.6 °F 14.7 °F 19.4 °F 74% 30.56 in 2.5 mi NE 15.0 mph - N/A   Overcast
1:55 PM 26.6 °F 14.3 °F 21.2 °F 80% 30.55 in 3.0 mi NNE 16.1 mph - N/A   Overcast
2:15 PM 26.6 °F 15.2 °F 19.4 °F 74% 30.56 in 5.0 mi NNE 13.8 mph - N/A   Mostly Cloudy
2:35 PM 26.6 °F 14.7 °F 19.4 °F 74% 30.56 in 4.0 mi NNE 15.0 mph - N/A   Overcast
2:55 PM 26.6 °F 13.8 °F 19.4 °F 74% 30.54 in 10.0 mi NE 17.3 mph - N/A   Overcast
3:15 PM 26.6 °F 13.8 °F 19.4 °F 74% 30.54 in 10.0 mi NE 17.3 mph - N/A   Overcast
3:35 PM 26.6 °F 14.7 °F 19.4 °F 74% 30.54 in 10.0 mi NE 15.0 mph 18.4 mph N/A   Overcast
3:55 PM 24.8 °F 12.4 °F 19.4 °F 80% 30.54 in 10.0 mi NE 15.0 mph - N/A   Overcast
4:15 PM 24.8 °F 11.9 °F 17.6 °F 74% 30.54 in 10.0 mi NE 16.1 mph - N/A   Overcast
4:35 PM 24.8 °F 11.1 °F 17.6 °F 74% 30.52 in 10.0 mi NE 18.4 mph - N/A   Overcast
4:55 PM 24.8 °F 11.9 °F 17.6 °F 74% 30.54 in 10.0 mi NE 16.1 mph - N/A   Overcast
5:15 PM 24.8 °F 12.9 °F 17.6 °F 74% 30.53 in 10.0 mi NNE 13.8 mph - N/A   Overcast
5:35 PM 24.8 °F 12.4 °F 19.4 °F 80% 30.53 in 10.0 mi NNE 15.0 mph - N/A   Overcast
5:55 PM 24.8 °F 14.6 °F 17.6 °F 74% 30.54 in 10.0 mi NNE 10.4 mph - N/A   Overcast
6:15 PM 24.8 °F 16.9 °F 15.8 °F 69% 30.56 in 10.0 mi NNE 6.9 mph - N/A   Overcast
6:35 PM 24.8 °F 14.6 °F 17.6 °F 74% 30.55 in 10.0 mi NNE 10.4 mph - N/A   Overcast
6:55 PM 24.8 °F 14.0 °F 17.6 °F 74% 30.54 in 6.0 mi NNE 11.5 mph - N/A   Overcast
7:15 PM 24.8 °F 14.0 °F 17.6 °F 74% 30.55 in 7.0 mi NE 11.5 mph - N/A   Overcast
7:35 PM 24.8 °F 12.9 °F 17.6 °F 74% 30.54 in 1.2 mi NE 13.8 mph - N/A   Overcast
7:55 PM 24.8 °F 14.6 °F 17.6 °F 74% 30.55 in 1.2 mi ENE 10.4 mph - N/A   Overcast
8:15 PM 23.0 °F 11.7 °F 17.6 °F 80% 30.57 in 0.8 mi NE 11.5 mph 19.6 mph N/A   Overcast
8:35 PM 23.0 °F 13.1 °F 19.4 °F 86% 30.57 in 0.8 mi NNE 9.2 mph - 0.01 in   Overcast
8:55 PM 23.0 °F 11.7 °F 17.6 °F 80% 30.55 in 1.2 mi NE 11.5 mph - 0.02 in   Overcast
9:15 PM 23.0 °F 13.9 °F 17.6 °F 80% 30.57 in 0.8 mi ENE 8.1 mph - 0.06 in   Overcast
9:35 PM 23.0 °F 12.4 °F 19.4 °F 86% 30.57 in 1.2 mi ENE 10.4 mph - 0.09 in   Overcast
9:55 PM 23.0 °F 10.6 °F 17.6 °F 80% 30.56 in 1.0 mi ENE 13.8 mph - 0.09 in   Overcast
10:15 PM 23.0 °F 13.1 °F 17.6 °F 80% 30.55 in 1.0 mi ENE 9.2 mph - 0.03 in   Overcast
10:35 PM 23.0 °F 10.6 °F 17.6 °F 80% 30.55 in 0.8 mi ENE 13.8 mph - 0.03 in   Overcast
10:55 PM 23.0 °F 10.1 °F 17.6 °F 80% 30.55 in 0.5 mi ENE 15.0 mph - 0.04 in   Overcast
11:15 PM 21.2 °F 8.9 °F 17.6 °F 86% 30.55 in 0.8 mi ENE 12.7 mph - 0.05 in   Overcast
11:35 PM 21.2 °F 8.9 °F 17.6 °F 86% 30.55 in 1.8 mi ENE 12.7 mph - 0.09 in   Overcast
11:55 PM 21.2 °F 10.9 °F 17.6 °F 86% 30.54 in 3.0 mi ENE 9.2 mph - 0.11 in   Overcast